createdAt,value
2023-05-20T00:02:08.747Z,13.10
2023-05-20T00:04:32.355Z,13.00
2023-05-20T00:06:57.022Z,12.90
2023-05-20T00:09:20.333Z,13.00
2023-05-20T00:11:43.791Z,12.90
2023-05-20T00:14:07.308Z,12.90
2023-05-20T00:16:30.722Z,12.80
2023-05-20T00:18:54.127Z,12.80
2023-05-20T00:21:17.503Z,12.80
2023-05-20T00:23:42.177Z,12.80
2023-05-20T00:26:06.029Z,12.80
2023-05-20T00:28:30.468Z,12.70
2023-05-20T00:30:53.826Z,12.60
2023-05-20T00:33:17.438Z,12.50
2023-05-20T00:35:40.803Z,12.50
2023-05-20T00:38:04.104Z,12.50
2023-05-20T00:40:28.827Z,12.50
2023-05-20T00:42:52.344Z,12.40
2023-05-20T00:45:15.741Z,12.30
2023-05-20T00:47:40.049Z,12.30
2023-05-20T00:50:05.814Z,12.20
2023-05-20T00:52:31.259Z,12.20
2023-05-20T00:54:54.802Z,12.10
2023-05-20T00:57:21.316Z,12.10
2023-05-20T00:59:44.938Z,12.10
2023-05-20T01:02:08.652Z,12.10
2023-05-20T01:04:32.178Z,12.10
2023-05-20T01:06:56.148Z,12.10
2023-05-20T01:09:19.740Z,12.00
2023-05-20T01:11:50.186Z,12.00
2023-05-20T01:14:18.785Z,12.00
2023-05-20T01:16:43.488Z,12.00
2023-05-20T01:19:23.597Z,12.00
2023-05-20T01:21:47.628Z,12.00
2023-05-20T01:24:12.649Z,12.00
2023-05-20T01:26:38.459Z,12.00
2023-05-20T01:29:04.319Z,12.10
2023-05-20T01:31:31.629Z,12.20
2023-05-20T01:33:58.627Z,12.20
2023-05-20T01:36:24.016Z,12.20
2023-05-20T01:38:47.783Z,12.10
2023-05-20T01:41:13.589Z,12.20
2023-05-20T01:43:37.770Z,12.20
2023-05-20T01:46:02.807Z,12.10
2023-05-20T01:48:26.229Z,12.10
2023-05-20T01:50:49.589Z,12.00
2023-05-20T01:53:13.423Z,12.10
2023-05-20T01:55:38.421Z,12.10
2023-05-20T01:58:03.365Z,12.00
2023-05-20T02:00:26.804Z,12.00
2023-05-20T02:02:50.259Z,12.00
2023-05-20T02:05:13.896Z,12.00
2023-05-20T02:07:39.561Z,12.00
2023-05-20T02:10:02.980Z,12.00
2023-05-20T02:12:26.713Z,11.90
2023-05-20T02:14:52.046Z,11.90
2023-05-20T02:17:16.526Z,11.80
2023-05-20T02:19:40.378Z,11.70
2023-05-20T02:22:03.685Z,11.70
2023-05-20T02:24:27.068Z,11.70
2023-05-20T02:26:51.355Z,11.60
2023-05-20T02:29:14.982Z,11.60
2023-05-20T02:31:40.797Z,11.60
2023-05-20T02:34:04.253Z,11.70
2023-05-20T02:36:27.942Z,11.70
2023-05-20T02:38:51.350Z,11.70
2023-05-20T02:41:14.710Z,11.60
2023-05-20T02:43:40.635Z,11.60
2023-05-20T02:46:04.191Z,11.60
2023-05-20T02:48:28.974Z,11.50
2023-05-20T02:50:53.082Z,11.50
2023-05-20T02:53:16.442Z,11.40
2023-05-20T02:55:41.759Z,11.50
2023-05-20T02:58:05.081Z,11.50
2023-05-20T03:00:31.344Z,11.50
2023-05-20T03:02:54.687Z,11.50
2023-05-20T03:05:19.728Z,11.30
2023-05-20T03:07:43.004Z,11.30
2023-05-20T03:10:08.223Z,11.30
2023-05-20T03:12:32.215Z,11.30
2023-05-20T03:14:55.949Z,11.30
2023-05-20T03:17:19.570Z,11.30
2023-05-20T03:19:42.916Z,11.30
2023-05-20T03:22:07.785Z,11.40
2023-05-20T03:24:31.177Z,11.40
2023-05-20T03:26:54.805Z,11.30
2023-05-20T03:29:19.017Z,11.30
2023-05-20T03:31:43.016Z,11.40
2023-05-20T03:34:06.985Z,11.40
2023-05-20T03:36:31.118Z,11.30
2023-05-20T03:38:55.997Z,11.40
2023-05-20T03:41:19.396Z,11.40
2023-05-20T03:43:42.798Z,11.40
2023-05-20T03:46:07.197Z,11.40
2023-05-20T03:48:32.179Z,11.50
2023-05-20T03:50:55.551Z,11.50
2023-05-20T03:53:20.197Z,11.50
2023-05-20T03:55:44.864Z,11.40
2023-05-20T03:58:09.735Z,11.50
2023-05-20T04:00:33.101Z,11.40
2023-05-20T04:02:56.613Z,11.50
2023-05-20T04:05:20.228Z,11.50
2023-05-20T04:07:44.272Z,11.40
2023-05-20T04:10:11.464Z,11.40
2023-05-20T04:12:38.287Z,11.40
2023-05-20T04:15:02.699Z,11.30
2023-05-20T04:17:31.560Z,11.30
2023-05-20T04:19:55.350Z,11.40
2023-05-20T04:22:18.621Z,11.30
2023-05-20T04:24:42.200Z,11.30
2023-05-20T04:27:07.836Z,11.30
2023-05-20T04:29:34.418Z,11.40
2023-05-20T04:31:58.789Z,11.30
2023-05-20T04:34:26.835Z,11.30
2023-05-20T04:36:52.078Z,11.40
2023-05-20T04:39:15.684Z,11.30
2023-05-20T04:41:39.914Z,11.40
2023-05-20T04:44:03.907Z,11.40
2023-05-20T04:46:29.054Z,11.50
2023-05-20T04:48:52.569Z,11.50
2023-05-20T04:51:16.213Z,11.50
2023-05-20T04:53:40.404Z,11.50
2023-05-20T04:56:04.060Z,11.50
2023-05-20T04:58:30.280Z,11.60
2023-05-20T05:00:54.291Z,11.60
2023-05-20T05:03:19.472Z,11.70
2023-05-20T05:05:42.968Z,11.80
2023-05-20T05:08:07.593Z,11.80
2023-05-20T05:10:36.312Z,11.80
2023-05-20T05:12:59.666Z,12.00
2023-05-20T05:15:23.235Z,12.00
2023-05-20T05:17:46.824Z,12.10
2023-05-20T05:20:12.659Z,12.20
2023-05-20T05:22:37.054Z,12.20
2023-05-20T05:25:00.554Z,12.30
2023-05-20T05:27:24.058Z,12.40
2023-05-20T05:29:47.415Z,12.50
2023-05-20T05:32:10.823Z,12.60
2023-05-20T05:34:34.224Z,12.70
2023-05-20T05:36:58.897Z,12.90
2023-05-20T05:39:22.842Z,13.00
2023-05-20T05:41:46.300Z,13.30
2023-05-20T05:44:09.909Z,13.50
2023-05-20T05:46:33.689Z,13.60
2023-05-20T05:48:58.992Z,13.70
2023-05-20T05:51:22.609Z,14.00
2023-05-20T05:53:47.468Z,14.10
2023-05-20T05:56:11.823Z,14.10
2023-05-20T05:58:35.239Z,14.10
2023-05-20T06:00:59.362Z,14.40
2023-05-20T06:03:22.999Z,14.50
2023-05-20T06:05:47.778Z,14.80
2023-05-20T06:08:11.114Z,14.60
2023-05-20T06:10:36.294Z,14.80
2023-05-20T06:12:59.652Z,15.00
2023-05-20T06:15:24.077Z,14.90
2023-05-20T06:17:47.602Z,15.00
2023-05-20T06:20:13.775Z,15.20
2023-05-20T06:22:37.066Z,15.30
2023-05-20T06:25:02.508Z,15.30
2023-05-20T06:27:28.445Z,15.30
2023-05-20T06:29:51.801Z,15.50
2023-05-20T06:32:15.169Z,15.60
2023-05-20T06:34:38.622Z,15.50
2023-05-20T06:37:02.453Z,15.70
2023-05-20T06:39:26.109Z,15.90
2023-05-20T06:41:49.397Z,15.90
2023-05-20T06:44:24.932Z,16.00
2023-05-20T06:46:57.256Z,15.50
2023-05-20T06:49:20.742Z,15.20
2023-05-20T06:51:44.212Z,15.10
2023-05-20T06:54:07.564Z,15.30
2023-05-20T06:56:31.079Z,15.60
2023-05-20T06:58:56.830Z,15.80
2023-05-20T07:01:21.630Z,15.70
2023-05-20T07:03:45.032Z,15.70
2023-05-20T07:06:08.786Z,15.50
2023-05-20T07:08:32.196Z,15.50
2023-05-20T07:10:57.260Z,15.70
2023-05-20T07:13:23.914Z,15.50
2023-05-20T07:15:48.601Z,15.50
2023-05-20T07:18:14.299Z,15.40
2023-05-20T07:20:39.393Z,15.50
2023-05-20T07:23:08.761Z,15.80
2023-05-20T07:25:38.836Z,16.00
2023-05-20T07:28:02.254Z,16.00
2023-05-20T07:30:25.987Z,16.00
2023-05-20T07:33:05.350Z,16.00
2023-05-20T07:35:30.194Z,15.80
2023-05-20T07:37:53.481Z,16.00
2023-05-20T07:40:17.120Z,16.00
2023-05-20T07:42:41.047Z,16.10
2023-05-20T07:45:04.799Z,16.10
2023-05-20T07:47:28.713Z,16.00
2023-05-20T07:49:52.129Z,16.00
2023-05-20T07:52:17.341Z,15.90
2023-05-20T07:54:42.814Z,15.90
2023-05-20T07:57:07.060Z,16.00
2023-05-20T07:59:30.515Z,16.00
2023-05-20T08:01:54.745Z,16.20
2023-05-20T08:04:18.432Z,16.10
2023-05-20T08:06:44.456Z,16.30
2023-05-20T08:09:14.061Z,16.10
2023-05-20T08:11:43.574Z,16.10
2023-05-20T08:14:07.676Z,16.20
2023-05-20T08:16:37.209Z,16.20
2023-05-20T08:19:00.689Z,16.20
2023-05-20T08:21:24.176Z,16.10
2023-05-20T08:23:47.484Z,16.20
2023-05-20T08:26:12.227Z,16.20
2023-05-20T08:28:38.475Z,16.30
2023-05-20T08:31:03.648Z,16.20
2023-05-20T08:33:28.336Z,16.20
2023-05-20T08:35:51.775Z,16.30
2023-05-20T08:38:15.117Z,16.30
2023-05-20T08:40:38.527Z,16.40
2023-05-20T08:43:03.766Z,16.40
2023-05-20T08:45:28.755Z,16.50
2023-05-20T08:47:57.366Z,16.60
2023-05-20T08:50:22.194Z,16.50
2023-05-20T08:52:47.359Z,16.70
2023-05-20T08:55:14.804Z,16.70
2023-05-20T08:57:39.548Z,16.50
2023-05-20T09:00:09.473Z,16.50
2023-05-20T09:02:32.820Z,16.60
2023-05-20T09:04:56.208Z,16.90
2023-05-20T09:07:28.863Z,16.70
2023-05-20T09:09:52.141Z,17.00
2023-05-20T09:12:16.191Z,17.00
2023-05-20T09:14:39.538Z,16.90
2023-05-20T09:17:05.779Z,17.00
2023-05-20T09:19:29.051Z,17.10
2023-05-20T09:21:55.076Z,17.30
2023-05-20T09:24:24.088Z,17.40
2023-05-20T09:26:47.991Z,17.50
2023-05-20T09:29:11.421Z,17.40
2023-05-20T09:31:35.763Z,17.50
2023-05-20T09:42:56.439Z,25.10
2023-05-20T09:45:20.536Z,22.10
2023-05-20T09:50:43.966Z,19.50
2023-05-20T09:53:07.688Z,18.50
2023-05-20T09:55:32.128Z,18.40
2023-05-20T09:57:56.144Z,18.30
2023-05-20T10:00:19.926Z,18.30
2023-05-20T10:02:45.957Z,18.10
2023-05-20T10:05:18.617Z,18.00
2023-05-20T10:08:32.838Z,18.50
2023-05-20T10:11:04.278Z,18.40
2023-05-20T10:13:47.885Z,18.30
2023-05-20T10:16:25.090Z,18.30
2023-05-20T10:18:59.880Z,18.40
2023-05-20T10:21:26.014Z,18.70
2023-05-20T10:23:50.816Z,18.70
2023-05-20T10:26:14.122Z,18.60
2023-05-20T10:28:39.220Z,18.90
2023-05-20T10:31:02.851Z,19.00
2023-05-20T10:33:28.639Z,19.00
2023-05-20T10:35:53.167Z,19.10
2023-05-20T10:38:16.699Z,19.20
2023-05-20T10:40:41.782Z,19.20
2023-05-20T10:43:15.795Z,18.90
2023-05-20T10:45:50.885Z,18.90
2023-05-20T10:48:22.446Z,18.60
2023-05-20T10:50:46.877Z,18.90
2023-05-20T10:53:29.267Z,19.00
2023-05-20T10:55:58.137Z,18.70
2023-05-20T10:58:22.715Z,18.50
2023-05-20T11:00:47.066Z,18.90
2023-05-20T11:03:13.111Z,18.90
2023-05-20T11:05:37.472Z,18.60
2023-05-20T11:08:08.544Z,18.60
2023-05-20T11:10:45.236Z,18.60
2023-05-20T11:13:10.200Z,18.50
2023-05-20T11:15:35.422Z,18.50
2023-05-20T11:18:03.568Z,18.60
2023-05-20T11:20:28.139Z,18.40
2023-05-20T11:22:52.169Z,18.30
2023-05-20T11:25:15.615Z,18.30
2023-05-20T11:27:41.377Z,18.50
2023-05-20T11:30:08.178Z,18.70
2023-05-20T11:32:31.560Z,18.90
2023-05-20T11:34:54.884Z,19.00
2023-05-20T11:37:20.161Z,18.70
2023-05-20T11:39:44.422Z,18.70
2023-05-20T11:42:08.030Z,18.70
2023-05-20T11:44:31.413Z,18.30
2023-05-20T11:47:02.389Z,18.50
2023-05-20T11:49:25.852Z,18.70
2023-05-20T11:51:49.157Z,19.00
2023-05-20T11:54:12.502Z,18.80
2023-05-20T11:56:37.557Z,18.80
2023-05-20T11:59:02.176Z,19.00
2023-05-20T12:01:25.615Z,19.20
2023-05-20T12:03:50.808Z,19.10
2023-05-20T12:06:14.519Z,19.00
2023-05-20T12:08:37.782Z,19.20
2023-05-20T12:11:01.148Z,19.00
2023-05-20T12:13:24.794Z,19.40
2023-05-20T12:15:48.949Z,19.50
2023-05-20T12:18:12.502Z,19.50
2023-05-20T12:20:37.470Z,19.50
2023-05-20T12:23:01.836Z,19.60
2023-05-20T12:25:25.376Z,19.60
2023-05-20T12:27:50.554Z,19.60
2023-05-20T12:30:14.055Z,19.50
2023-05-20T12:32:38.058Z,19.70
2023-05-20T12:35:01.368Z,19.50
2023-05-20T12:37:26.321Z,19.40
2023-05-20T12:39:49.815Z,19.50
2023-05-20T12:42:13.110Z,19.80
2023-05-20T12:44:36.515Z,19.90
2023-05-20T12:46:59.964Z,20.20
2023-05-20T12:49:23.361Z,20.50
2023-05-20T12:51:46.732Z,20.00
2023-05-20T12:54:11.363Z,20.00
2023-05-20T12:56:34.676Z,19.70
2023-05-20T12:58:58.048Z,19.70
2023-05-20T13:01:21.584Z,19.70
2023-05-20T13:03:44.946Z,19.60
2023-05-20T13:06:08.353Z,19.60
2023-05-20T13:08:31.714Z,19.80
2023-05-20T13:10:56.692Z,19.80
2023-05-20T13:13:21.746Z,19.90
2023-05-20T13:15:45.462Z,19.90
2023-05-20T13:18:10.345Z,20.00
2023-05-20T13:20:33.894Z,20.00
2023-05-20T13:22:57.358Z,20.10
2023-05-20T13:25:20.796Z,20.10
2023-05-20T13:27:45.605Z,20.10
2023-05-20T13:30:10.337Z,20.10
2023-05-20T13:32:34.124Z,20.10
2023-05-20T13:34:59.608Z,20.10
2023-05-20T13:37:22.963Z,20.20
2023-05-20T13:39:46.535Z,20.30
2023-05-20T13:42:09.851Z,20.30
2023-05-20T13:44:34.534Z,20.10
2023-05-20T13:46:57.933Z,20.10
2023-05-20T13:49:22.218Z,20.30
2023-05-20T13:51:46.009Z,20.40
2023-05-20T13:54:09.233Z,20.30
2023-05-20T13:56:32.642Z,20.30
2023-05-20T13:58:55.893Z,20.30
2023-05-20T14:01:20.664Z,20.30
2023-05-20T14:03:44.169Z,20.00
2023-05-20T14:06:07.967Z,20.20
2023-05-20T14:08:31.339Z,20.30
2023-05-20T14:10:55.725Z,20.50
2023-05-20T14:13:19.082Z,20.30
2023-05-20T14:15:42.517Z,20.10
2023-05-20T14:18:07.270Z,20.00
2023-05-20T14:20:30.995Z,20.20
2023-05-20T14:22:54.844Z,20.10
2023-05-20T14:25:18.226Z,20.10
2023-05-20T14:27:41.578Z,20.20
2023-05-20T14:30:06.551Z,20.00
2023-05-20T14:32:29.997Z,20.20
2023-05-20T14:34:54.785Z,20.40
2023-05-20T14:37:18.083Z,20.50
2023-05-20T14:39:41.428Z,20.60
2023-05-20T14:42:05.379Z,20.70
2023-05-20T14:44:28.810Z,20.70
2023-05-20T14:46:52.362Z,20.40
2023-05-20T14:49:15.856Z,20.60
2023-05-20T14:51:40.610Z,20.80
2023-05-20T14:54:04.014Z,21.10
2023-05-20T14:56:27.745Z,21.00
2023-05-20T14:58:51.058Z,20.60
2023-05-20T15:01:14.449Z,20.50
2023-05-20T15:03:37.874Z,20.40
2023-05-20T15:06:01.217Z,20.10
2023-05-20T15:08:26.006Z,20.30
2023-05-20T15:10:50.415Z,20.10
2023-05-20T15:13:13.647Z,20.20
2023-05-20T15:15:36.889Z,20.50
2023-05-20T15:18:00.283Z,20.50
2023-05-20T15:20:23.867Z,20.60
2023-05-20T15:22:48.225Z,20.80
2023-05-20T15:25:13.177Z,20.50
2023-05-20T15:27:36.560Z,20.30
2023-05-20T15:30:00.026Z,20.00
2023-05-20T15:32:23.476Z,20.00
2023-05-20T15:34:47.101Z,19.80
2023-05-20T15:37:10.421Z,19.80
2023-05-20T15:39:33.779Z,19.90
2023-05-20T15:41:59.580Z,19.70
2023-05-20T15:44:22.912Z,19.70
2023-05-20T15:46:46.600Z,19.70
2023-05-20T15:49:10.047Z,20.00
2023-05-20T15:51:33.876Z,20.20
2023-05-20T15:53:57.181Z,20.10
2023-05-20T15:56:21.735Z,20.10
2023-05-20T15:58:46.634Z,20.00
2023-05-20T16:01:09.958Z,20.00
2023-05-20T16:03:33.463Z,19.90
2023-05-20T16:05:56.923Z,19.70
2023-05-20T16:08:23.661Z,19.70
2023-05-20T16:10:46.946Z,19.70
2023-05-20T16:13:10.296Z,19.60
2023-05-20T16:16:00.683Z,19.50
2023-05-20T16:18:25.203Z,19.50
2023-05-20T16:20:48.698Z,19.40
2023-05-20T16:23:12.285Z,19.30
2023-05-20T16:25:35.942Z,19.20
2023-05-20T16:28:01.160Z,19.30
2023-05-20T16:30:24.837Z,19.20
2023-05-20T16:32:49.638Z,19.30
2023-05-20T16:35:15.474Z,19.30
2023-05-20T16:37:40.693Z,19.30
2023-05-20T16:40:05.263Z,19.30
2023-05-20T16:42:28.569Z,19.20
2023-05-20T16:44:52.978Z,19.20
2023-05-20T16:47:16.673Z,19.00
2023-05-20T16:49:41.372Z,19.00
2023-05-20T16:52:07.874Z,19.00
2023-05-20T16:54:32.624Z,18.90
2023-05-20T16:56:57.764Z,18.80
2023-05-20T16:59:21.732Z,18.90
2023-05-20T17:01:45.131Z,18.90
2023-05-20T17:04:08.704Z,19.00
2023-05-20T17:06:34.380Z,18.80
2023-05-20T17:09:04.777Z,18.80
2023-05-20T17:11:31.385Z,18.80
2023-05-20T17:13:54.684Z,18.80
2023-05-20T17:16:19.456Z,18.70
2023-05-20T17:18:42.837Z,18.60
2023-05-20T17:21:06.756Z,18.50
2023-05-20T17:23:32.622Z,18.50
2023-05-20T17:25:55.933Z,18.50
2023-05-20T17:28:19.401Z,18.50
2023-05-20T17:30:43.165Z,18.40
2023-05-20T17:33:06.553Z,18.40
2023-05-20T17:35:31.783Z,18.40
2023-05-20T17:37:56.039Z,18.40
2023-05-20T17:40:26.426Z,18.40
2023-05-20T17:42:49.864Z,18.30
2023-05-20T17:45:13.403Z,18.30
2023-05-20T17:47:37.187Z,18.30
2023-05-20T17:50:02.447Z,18.20
2023-05-20T17:52:25.910Z,18.20
2023-05-20T17:54:49.530Z,18.10
2023-05-20T17:57:14.266Z,18.10
2023-05-20T17:59:38.589Z,18.10
2023-05-20T18:02:02.034Z,18.10
2023-05-20T18:04:26.334Z,18.00
2023-05-20T18:06:49.798Z,18.00
2023-05-20T18:09:13.849Z,18.10
2023-05-20T18:11:39.027Z,18.00
2023-05-20T18:14:03.918Z,18.00
2023-05-20T18:16:27.685Z,17.90
2023-05-20T18:18:51.087Z,17.90
2023-05-20T18:21:14.433Z,17.80
2023-05-20T18:23:37.741Z,17.80
2023-05-20T18:26:06.409Z,17.80
2023-05-20T18:28:37.031Z,17.70
2023-05-20T18:31:03.401Z,17.80
2023-05-20T18:33:27.008Z,17.80
2023-05-20T18:35:51.706Z,17.70
2023-05-20T18:38:15.127Z,17.80
2023-05-20T18:40:38.492Z,17.70
2023-05-20T18:43:01.790Z,17.70
2023-05-20T18:45:25.918Z,17.60
2023-05-20T18:47:50.771Z,17.60
2023-05-20T18:50:14.362Z,17.60
2023-05-20T18:52:37.829Z,17.60
2023-05-20T18:55:01.197Z,17.50
2023-05-20T18:57:24.500Z,17.50
2023-05-20T18:59:48.061Z,17.50
2023-05-20T19:02:11.470Z,17.50
2023-05-20T19:04:36.259Z,17.50
2023-05-20T19:07:00.792Z,17.50
2023-05-20T19:09:24.080Z,17.40
2023-05-20T19:11:47.418Z,17.40
2023-05-20T19:14:11.434Z,17.40
2023-05-20T19:16:34.900Z,17.40
2023-05-20T19:18:58.598Z,17.30
2023-05-20T19:21:23.481Z,17.30
2023-05-20T19:23:47.065Z,17.30
2023-05-20T19:26:10.637Z,17.30
2023-05-20T19:28:33.875Z,17.30
2023-05-20T19:30:57.233Z,17.30
2023-05-20T19:33:21.702Z,17.20
2023-05-20T19:35:45.265Z,17.20
2023-05-20T19:38:09.968Z,17.20
2023-05-20T19:40:34.284Z,17.20
2023-05-20T19:42:57.678Z,17.10
2023-05-20T19:45:21.964Z,17.10
2023-05-20T19:47:45.639Z,17.10
2023-05-20T19:50:10.429Z,17.00
2023-05-20T19:52:33.817Z,17.00
2023-05-20T19:54:58.525Z,16.90
2023-05-20T19:57:21.846Z,16.90
2023-05-20T19:59:45.143Z,16.80
2023-05-20T20:02:08.527Z,16.80
2023-05-20T20:04:31.951Z,16.80
2023-05-20T20:06:55.269Z,16.70
2023-05-20T20:09:18.737Z,16.60
2023-05-20T20:11:43.541Z,16.60
2023-05-20T20:14:06.944Z,16.50
2023-05-20T20:16:30.464Z,16.50
2023-05-20T20:18:54.061Z,16.50
2023-05-20T20:21:18.055Z,16.50
2023-05-20T20:23:43.333Z,16.30
2023-05-20T20:26:07.642Z,16.30
2023-05-20T20:28:32.348Z,16.30
2023-05-20T20:30:55.650Z,16.30
2023-05-20T20:33:19.637Z,16.20
2023-05-20T20:35:43.179Z,16.20
2023-05-20T20:38:09.671Z,16.20
2023-05-20T20:40:33.463Z,16.10
2023-05-20T20:42:58.241Z,16.10
2023-05-20T20:45:23.489Z,16.00
2023-05-20T20:47:46.921Z,16.00
2023-05-20T20:50:11.622Z,16.00
2023-05-20T20:52:35.214Z,16.00
2023-05-20T20:54:58.440Z,16.00
2023-05-20T20:57:23.915Z,15.90
2023-05-20T20:59:48.363Z,15.90
2023-05-20T21:02:13.269Z,15.80
2023-05-20T21:04:39.781Z,15.80
2023-05-20T21:07:03.279Z,15.70
2023-05-20T21:09:28.689Z,15.70
2023-05-20T21:11:52.089Z,15.60
2023-05-20T21:14:15.352Z,15.50
2023-05-20T21:16:38.818Z,15.60
2023-05-20T21:19:04.840Z,15.60
2023-05-20T21:21:28.163Z,15.60
2023-05-20T21:23:52.797Z,15.60
2023-05-20T21:26:16.203Z,15.50
2023-05-20T21:28:39.473Z,15.60
2023-05-20T21:31:02.826Z,15.50
2023-05-20T21:33:26.260Z,15.50
2023-05-20T21:35:50.999Z,15.50
2023-05-20T21:38:14.472Z,15.50
2023-05-20T21:40:37.766Z,15.50
2023-05-20T21:43:01.075Z,15.40
2023-05-20T21:45:24.365Z,15.40
2023-05-20T21:47:47.985Z,15.40
2023-05-20T21:50:12.686Z,15.30
2023-05-20T21:52:39.693Z,15.30
2023-05-20T21:55:03.083Z,15.30
2023-05-20T21:57:26.391Z,15.30
2023-05-20T21:59:50.147Z,15.30
2023-05-20T22:02:13.430Z,15.20
2023-05-20T22:04:37.300Z,15.30
2023-05-20T22:07:00.896Z,15.30
2023-05-20T22:09:25.586Z,15.20
2023-05-20T22:11:49.030Z,15.20
2023-05-20T22:14:16.360Z,15.10
2023-05-20T22:16:42.948Z,15.20
2023-05-20T22:19:06.331Z,15.10
2023-05-20T22:21:32.117Z,15.10
2023-05-20T22:23:57.805Z,15.10
2023-05-20T22:26:22.427Z,15.10
2023-05-20T22:28:47.036Z,15.10
2023-05-20T22:31:10.534Z,15.00
2023-05-20T22:33:33.951Z,15.00
2023-05-20T22:35:58.105Z,15.00
2023-05-20T22:38:23.877Z,14.90
2023-05-20T22:40:47.281Z,15.00
2023-05-20T22:43:13.084Z,15.00
2023-05-20T22:45:36.720Z,15.00
2023-05-20T22:48:04.041Z,15.00
2023-05-20T22:50:27.775Z,15.00
2023-05-20T22:52:51.205Z,14.90
2023-05-20T22:55:14.536Z,14.90
2023-05-20T22:57:38.030Z,14.90
2023-05-20T23:00:02.806Z,14.90
2023-05-20T23:02:26.170Z,14.90
2023-05-20T23:04:49.560Z,14.80
2023-05-20T23:07:23.522Z,14.80
2023-05-20T23:10:39.591Z,14.80
2023-05-20T23:13:02.950Z,14.80
2023-05-20T23:15:28.001Z,14.80
2023-05-20T23:17:52.136Z,14.70
2023-05-20T23:20:19.096Z,14.70
2023-05-20T23:22:42.822Z,14.60
2023-05-20T23:25:06.868Z,14.70
2023-05-20T23:27:30.160Z,14.70
2023-05-20T23:29:53.612Z,14.60
2023-05-20T23:32:18.290Z,14.60
2023-05-20T23:34:43.626Z,14.60
2023-05-20T23:37:07.110Z,14.60
2023-05-20T23:39:30.688Z,14.60
2023-05-20T23:41:54.017Z,14.60
2023-05-20T23:44:17.488Z,14.60
2023-05-20T23:46:58.338Z,14.50
2023-05-20T23:49:26.973Z,14.60
2023-05-20T23:51:50.250Z,14.60
2023-05-20T23:54:16.398Z,14.50
2023-05-20T23:56:39.737Z,14.60
2023-05-20T23:59:03.001Z,14.60
